createdAt,value
2023-05-06T00:00:24.776Z,13902.9229
2023-05-06T00:01:26.420Z,13905.4619
2023-05-06T00:02:28.149Z,13933.0771
2023-05-06T00:03:29.842Z,13897.9229
2023-05-06T00:04:31.392Z,13899.3076
2023-05-06T00:05:32.971Z,13899.3076
2023-05-06T00:06:34.679Z,13904.3848
2023-05-06T00:07:36.263Z,13909.8457
2023-05-06T00:08:37.894Z,13927.3848
2023-05-06T00:09:39.402Z,13910.3848
2023-05-06T00:10:41.178Z,13908.0000
2023-05-06T00:11:42.781Z,13897.1543
2023-05-06T00:12:44.533Z,13906.5381
2023-05-06T00:13:46.072Z,13910.0000
2023-05-06T00:14:47.742Z,13925.2305
2023-05-06T00:15:49.404Z,13912.6924
2023-05-06T00:16:51.112Z,13896.4619
2023-05-06T00:17:52.700Z,13903.5381
2023-05-06T00:18:54.299Z,13902.3848
2023-05-06T00:19:55.963Z,13908.6152
2023-05-06T00:20:57.571Z,13903.6152
2023-05-06T00:21:59.269Z,13914.3848
2023-05-06T00:23:01.313Z,13911.0771
2023-05-06T00:24:02.439Z,13925.7695
2023-05-06T00:25:04.096Z,13916.7695
2023-05-06T00:26:05.796Z,13901.0000
2023-05-06T00:27:07.406Z,13902.6924
2023-05-06T00:28:09.212Z,13902.6924
2023-05-06T00:29:10.670Z,13905.7695
2023-05-06T00:30:12.329Z,13912.0771
2023-05-06T00:31:14.041Z,13922.7695
2023-05-06T00:32:15.594Z,13913.6152
2023-05-06T00:33:17.314Z,13895.8457
2023-05-06T00:34:18.861Z,13903.8457
2023-05-06T00:35:20.598Z,13900.4619
2023-05-06T00:36:22.213Z,13900.0000
2023-05-06T00:37:23.827Z,13901.4619
2023-05-06T00:38:25.450Z,13905.4619
2023-05-06T00:39:27.145Z,13902.4619
2023-05-06T00:40:28.705Z,13898.0000
2023-05-06T00:41:30.380Z,13906.6152
2023-05-06T00:42:32.083Z,13906.2305
2023-05-06T00:43:33.730Z,13916.1543
2023-05-06T00:44:35.712Z,13930.3076
2023-05-06T00:45:36.981Z,13917.3076
2023-05-06T00:46:38.553Z,13912.1543
2023-05-06T00:47:40.754Z,13911.3076
2023-05-06T00:48:41.910Z,13902.2305
2023-05-06T00:49:44.209Z,13900.2305
2023-05-06T00:50:45.113Z,13901.7695
2023-05-06T00:51:47.800Z,13912.1543
2023-05-06T00:52:48.347Z,13903.1543
2023-05-06T00:53:50.082Z,13907.6152
2023-05-06T00:54:51.691Z,13895.3848
2023-05-06T00:55:53.287Z,13912.6152
2023-05-06T00:56:55.020Z,13903.7695
2023-05-06T00:57:56.629Z,13901.3848
2023-05-06T00:58:58.257Z,13913.3848
2023-05-06T01:00:00.001Z,13922.2305
2023-05-06T01:01:01.589Z,13914.8457
2023-05-06T01:02:03.272Z,13901.9229
2023-05-06T01:03:04.860Z,13901.6924
2023-05-06T01:04:06.602Z,13904.3076
2023-05-06T01:05:08.218Z,13913.0000
2023-05-06T01:06:09.826Z,13925.4619
2023-05-06T01:07:11.671Z,13903.8457
2023-05-06T01:08:13.103Z,13895.3848
2023-05-06T01:09:14.644Z,13902.1543
2023-05-06T01:10:16.373Z,13901.0000
2023-05-06T01:11:17.900Z,13924.0000
2023-05-06T01:12:19.560Z,13915.4619
2023-05-06T01:13:21.417Z,13916.6924
2023-05-06T01:14:22.891Z,13914.5381
2023-05-06T01:15:25.218Z,13901.0000
2023-05-06T01:16:27.165Z,13904.2305
2023-05-06T01:17:27.715Z,13904.1543
2023-05-06T01:18:29.430Z,13922.8457
2023-05-06T01:19:31.057Z,13907.4619
2023-05-06T01:20:32.714Z,13914.7695
2023-05-06T01:21:34.296Z,13917.7695
2023-05-06T01:22:35.952Z,13920.3076
2023-05-06T01:23:37.685Z,13905.8457
2023-05-06T01:24:39.370Z,13906.0000
2023-05-06T01:25:41.229Z,13932.3848
2023-05-06T01:26:42.538Z,13921.7695
2023-05-06T01:27:44.206Z,13911.9229
2023-05-06T01:28:45.969Z,13901.6152
2023-05-06T01:29:47.447Z,13908.0000
2023-05-06T01:30:49.167Z,13907.1543
2023-05-06T01:31:50.697Z,13908.3848
2023-05-06T01:32:52.571Z,13918.0771
2023-05-06T01:33:54.048Z,13917.6924
2023-05-06T01:34:55.683Z,13899.4619
2023-05-06T01:35:57.293Z,13906.1543
2023-05-06T01:36:58.955Z,13918.1543
2023-05-06T01:38:00.568Z,13913.4619
2023-05-06T01:39:02.391Z,13911.2305
2023-05-06T01:40:03.933Z,13927.8457
2023-05-06T01:41:05.570Z,13934.9229
2023-05-06T01:42:07.149Z,13920.6924
2023-05-06T01:43:08.847Z,13904.6924
2023-05-06T01:44:10.503Z,13912.5381
2023-05-06T01:45:12.190Z,13908.8457
2023-05-06T01:46:13.785Z,13915.4619
2023-05-06T01:47:15.469Z,13923.8457
2023-05-06T01:48:18.005Z,13916.6152
2023-05-06T01:49:19.539Z,13915.8457
2023-05-06T01:50:20.288Z,13906.4619
2023-05-06T01:51:21.983Z,13908.0771
2023-05-06T01:52:23.497Z,13912.4619
2023-05-06T01:53:25.151Z,13910.4619
2023-05-06T01:54:26.829Z,13915.8457
2023-05-06T01:55:28.438Z,13910.8457
2023-05-06T01:56:30.038Z,13899.5381
2023-05-06T01:57:31.700Z,13904.4619
2023-05-06T01:58:33.368Z,13907.3848
2023-05-06T01:59:35.079Z,13916.8457
2023-05-06T02:00:36.664Z,13930.1543
2023-05-06T02:01:38.412Z,13928.4619
2023-05-06T02:02:39.998Z,13911.9229
2023-05-06T02:03:41.661Z,13910.0771
2023-05-06T02:04:43.263Z,13912.0771
2023-05-06T02:05:44.855Z,13914.2305
2023-05-06T02:06:46.519Z,13924.4619
2023-05-06T02:07:48.114Z,13905.9229
2023-05-06T02:08:49.804Z,13899.8457
2023-05-06T02:09:51.412Z,13905.6152
2023-05-06T02:10:53.106Z,13912.2305
2023-05-06T02:11:54.703Z,13912.1543
2023-05-06T02:12:56.339Z,13922.3076
2023-05-06T02:13:57.989Z,13929.7695
2023-05-06T02:14:59.680Z,13923.0000
2023-05-06T02:16:01.294Z,13909.3848
2023-05-06T02:17:02.926Z,13903.3076
2023-05-06T02:18:04.702Z,13904.1543
2023-05-06T02:19:06.197Z,13920.8457
2023-05-06T02:20:07.988Z,13907.3848
2023-05-06T02:21:09.530Z,13909.4619
2023-05-06T02:22:11.096Z,13904.0771
2023-05-06T02:23:12.749Z,13908.0000
2023-05-06T02:24:14.402Z,13920.2305
2023-05-06T02:25:16.117Z,13931.3076
2023-05-06T02:26:17.800Z,13926.3076
2023-05-06T02:27:19.300Z,13924.3076
2023-05-06T02:28:20.956Z,13904.6924
2023-05-06T02:29:22.628Z,13909.7695
2023-05-06T02:30:24.261Z,13911.8457
2023-05-06T02:31:26.010Z,13915.8457
2023-05-06T02:32:27.514Z,13910.0771
2023-05-06T02:33:29.184Z,13931.1543
2023-05-06T02:34:30.798Z,13907.2305
2023-05-06T02:35:32.615Z,13914.6152
2023-05-06T02:36:34.137Z,13910.5381
2023-05-06T02:37:35.840Z,13920.5381
2023-05-06T02:38:37.315Z,13914.0771
2023-05-06T02:39:39.028Z,13930.7695
2023-05-06T02:40:40.638Z,13947.1543
2023-05-06T02:41:42.328Z,13916.0771
2023-05-06T02:42:43.978Z,13915.0000
2023-05-06T02:43:45.600Z,13919.0000
2023-05-06T02:44:47.208Z,13917.0000
2023-05-06T02:45:49.173Z,13919.7695
2023-05-06T02:46:50.548Z,13926.0000
2023-05-06T02:47:52.152Z,13909.5381
2023-05-06T02:48:53.712Z,13909.5381
2023-05-06T02:49:55.377Z,13912.8457
2023-05-06T02:50:57.078Z,13930.6152
2023-05-06T02:51:58.727Z,13923.0771
2023-05-06T02:53:00.309Z,13906.2305
2023-05-06T02:54:02.014Z,13909.3076
2023-05-06T02:55:03.654Z,13918.2305
2023-05-06T02:56:06.156Z,13915.9229
2023-05-06T02:57:06.895Z,13915.7695
2023-05-06T02:58:08.512Z,13911.9229
2023-05-06T02:59:10.200Z,13908.5381
2023-05-06T03:00:11.794Z,13911.0000
2023-05-06T03:01:13.497Z,13919.9229
2023-05-06T03:02:15.151Z,13919.3848
2023-05-06T03:03:16.759Z,13924.0000
2023-05-06T03:04:18.364Z,13922.6152
2023-05-06T03:05:20.607Z,13910.3076
2023-05-06T03:06:21.741Z,13912.8457
2023-05-06T03:07:23.690Z,13915.3848
2023-05-06T03:08:24.958Z,13939.0000
2023-05-06T03:09:26.513Z,13918.9229
2023-05-06T03:10:28.240Z,13930.4619
2023-05-06T03:11:30.601Z,13918.5381
2023-05-06T03:12:31.520Z,13919.3076
2023-05-06T03:13:33.097Z,13917.3848
2023-05-06T03:14:34.741Z,13914.7695
2023-05-06T03:15:36.444Z,13913.6924
2023-05-06T03:16:38.103Z,13912.7695
2023-05-06T03:17:40.128Z,13919.1543
2023-05-06T03:18:41.360Z,13927.6152
2023-05-06T03:19:42.926Z,13925.0000
2023-05-06T03:20:44.650Z,13928.8457
2023-05-06T03:21:46.302Z,13909.5381
2023-05-06T03:22:47.961Z,13916.0000
2023-05-06T03:23:49.517Z,13928.9229
2023-05-06T03:24:51.198Z,13933.6152
2023-05-06T03:25:52.863Z,13923.7695
2023-05-06T03:26:54.503Z,13913.1543
2023-05-06T03:27:56.131Z,13914.6924
2023-05-06T03:28:57.759Z,13929.0771
2023-05-06T03:29:59.432Z,13931.2305
2023-05-06T03:31:01.107Z,13922.2305
2023-05-06T03:32:02.738Z,13917.1543
2023-05-06T03:33:05.186Z,13912.0771
2023-05-06T03:34:05.970Z,13915.5381
2023-05-06T03:35:07.750Z,13921.5381
2023-05-06T03:36:09.163Z,13918.3076
2023-05-06T03:37:10.905Z,13922.4619
2023-05-06T03:38:12.504Z,13920.9229
2023-05-06T03:39:14.150Z,13921.0000
2023-05-06T03:40:15.780Z,13917.5381
2023-05-06T03:41:17.464Z,13921.3848
2023-05-06T03:42:19.076Z,13931.5381
2023-05-06T03:43:20.748Z,13915.6152
2023-05-06T03:44:22.338Z,13911.7695
2023-05-06T03:45:23.963Z,13910.3848
2023-05-06T03:46:25.598Z,13915.9229
2023-05-06T03:47:27.349Z,13918.3848
2023-05-06T03:48:28.968Z,13930.9229
2023-05-06T03:49:30.536Z,13913.3076
2023-05-06T03:50:32.125Z,13910.2305
2023-05-06T03:51:33.849Z,13912.5381
2023-05-06T03:52:35.454Z,13918.7695
2023-05-06T03:53:37.121Z,13918.2305
2023-05-06T03:54:38.678Z,13915.1543
2023-05-06T03:55:40.350Z,13923.9229
2023-05-06T03:56:41.987Z,13919.6924
2023-05-06T03:57:43.726Z,13919.3076
2023-05-06T03:58:45.573Z,13918.1543
2023-05-06T03:59:46.928Z,13916.3848
2023-05-06T04:00:48.538Z,13918.1543
2023-05-06T04:01:50.279Z,13916.2305
2023-05-06T04:02:52.732Z,13916.1543
2023-05-06T04:03:53.538Z,13929.4619
2023-05-06T04:04:55.163Z,13927.5381
2023-05-06T04:05:56.776Z,13929.7695
2023-05-06T04:06:58.434Z,13920.9229
2023-05-06T04:08:00.135Z,13915.3076
2023-05-06T04:09:01.734Z,13917.4619
2023-05-06T04:10:03.347Z,13922.3848
2023-05-06T04:11:04.945Z,13926.8457
2023-05-06T04:12:06.609Z,13932.6152
2023-05-06T04:13:08.274Z,13935.5381
2023-05-06T04:14:09.920Z,13921.1543
2023-05-06T04:15:11.798Z,13924.1543
2023-05-06T04:16:13.219Z,13927.1543
2023-05-06T04:17:14.842Z,13925.8457
2023-05-06T04:18:16.566Z,13942.6924
2023-05-06T04:19:18.597Z,13924.7695
2023-05-06T04:20:19.759Z,13925.5381
2023-05-06T04:21:21.438Z,13920.2305
2023-05-06T04:22:23.025Z,13933.8457
2023-05-06T04:23:24.796Z,13926.3848
2023-05-06T04:24:26.328Z,13928.9229
2023-05-06T04:25:27.967Z,13949.6152
2023-05-06T04:26:29.553Z,13920.2305
2023-05-06T04:27:31.241Z,13921.3076
2023-05-06T04:28:32.954Z,13919.6924
2023-05-06T04:29:34.568Z,13932.3076
2023-05-06T04:30:37.104Z,13929.6924
2023-05-06T04:31:38.761Z,13923.6924
2023-05-06T04:32:39.436Z,13928.6924
2023-05-06T04:33:41.127Z,13916.0000
2023-05-06T04:34:42.753Z,13922.1543
2023-05-06T04:35:44.446Z,13930.8457
2023-05-06T04:36:48.610Z,13920.5381
2023-05-06T04:37:48.666Z,13928.0000
2023-05-06T04:38:49.637Z,13920.8457
2023-05-06T04:39:51.065Z,13917.6924
2023-05-06T04:40:52.644Z,13923.5381
2023-05-06T04:41:54.244Z,13926.0000
2023-05-06T04:42:55.841Z,13927.7695
2023-05-06T04:43:57.540Z,13920.0771
2023-05-06T04:44:59.613Z,13918.9229
2023-05-06T04:46:00.841Z,13919.1543
2023-05-06T04:47:05.087Z,13925.0771
2023-05-06T04:48:04.112Z,13943.6152
2023-05-06T04:49:05.921Z,13938.2305
2023-05-06T04:50:08.248Z,13932.6152
2023-05-06T04:51:09.044Z,13939.7695
2023-05-06T04:52:10.671Z,13926.2305
2023-05-06T04:53:12.321Z,13933.6924
2023-05-06T04:54:14.016Z,13945.5381
2023-05-06T04:55:15.629Z,13947.5381
2023-05-06T04:56:17.250Z,13928.9229
2023-05-06T04:57:19.712Z,13930.8457
2023-05-06T04:58:20.647Z,13922.1543
2023-05-06T04:59:23.162Z,13930.5381
2023-05-06T05:00:23.844Z,13947.7695
2023-05-06T05:01:25.433Z,13937.5381
2023-05-06T05:02:27.185Z,13926.8457
2023-05-06T05:03:28.943Z,13928.0000
2023-05-06T05:04:30.662Z,13936.6924
2023-05-06T05:05:32.095Z,13918.5381
2023-05-06T05:06:33.687Z,13930.4619
2023-05-06T05:07:35.294Z,13942.3076
2023-05-06T05:08:36.916Z,13929.2305
2023-05-06T05:09:39.062Z,13923.2305
2023-05-06T05:10:42.203Z,13930.6152
2023-05-06T05:11:41.896Z,13915.6924
2023-05-06T05:12:43.553Z,13927.6924
2023-05-06T05:13:45.133Z,13944.4619
2023-05-06T05:14:47.129Z,13940.3848
2023-05-06T05:15:48.469Z,13924.9229
2023-05-06T05:16:50.097Z,13927.9229
2023-05-06T05:17:51.825Z,13926.7695
2023-05-06T05:18:53.315Z,13921.7695
2023-05-06T05:19:55.039Z,13936.8457
2023-05-06T05:20:57.091Z,13951.1543
2023-05-06T05:21:58.256Z,13931.3076
2023-05-06T05:22:59.888Z,13923.0771
2023-05-06T05:24:01.535Z,13930.2305
2023-05-06T05:25:04.270Z,13920.0771
2023-05-06T05:26:04.987Z,13942.1543
2023-05-06T05:27:06.460Z,13949.7695
2023-05-06T05:28:08.122Z,13930.8457
2023-05-06T05:29:09.828Z,13921.9229
2023-05-06T05:30:11.435Z,13915.1543
2023-05-06T05:31:13.067Z,13921.3076
2023-05-06T05:32:14.644Z,13936.7695
2023-05-06T05:33:16.393Z,13948.5381
2023-05-06T05:34:18.012Z,13934.0000
2023-05-06T05:35:19.655Z,13920.3076
2023-05-06T05:36:21.298Z,13920.9229
2023-05-06T05:37:22.914Z,13917.7695
2023-05-06T05:38:27.200Z,13938.6152
2023-05-06T05:39:26.173Z,13946.4619
2023-05-06T05:40:28.189Z,13935.3076
2023-05-06T05:41:29.514Z,13916.0771
2023-05-06T05:42:31.110Z,13911.5381
2023-05-06T05:43:32.687Z,13916.3848
2023-05-06T05:44:34.397Z,13946.6152
2023-05-06T05:45:37.745Z,13934.0771
2023-05-06T05:46:37.841Z,13927.9229
2023-05-06T05:47:39.405Z,13915.8457
2023-05-06T05:48:41.038Z,13907.3848
2023-05-06T05:49:42.680Z,13924.3848
2023-05-06T05:50:44.651Z,13946.2305
2023-05-06T05:51:45.890Z,13934.1543
2023-05-06T05:52:47.629Z,13924.9229
2023-05-06T05:53:49.174Z,13916.7695
2023-05-06T05:54:50.750Z,13911.6924
2023-05-06T05:55:54.142Z,13932.3076
2023-05-06T05:56:54.140Z,13946.4619
2023-05-06T05:57:55.764Z,13931.0000
2023-05-06T05:58:57.323Z,13916.9229
2023-05-06T05:59:59.022Z,13910.0000
2023-05-06T06:01:01.834Z,13914.6924
2023-05-06T06:02:02.366Z,13929.0000
2023-05-06T06:03:04.015Z,13923.9229
2023-05-06T06:04:05.746Z,13907.8457
2023-05-06T06:05:07.364Z,13900.3076
2023-05-06T06:06:09.013Z,13891.0771
2023-05-06T06:07:10.652Z,13889.5381
2023-05-06T06:08:12.216Z,13881.0000
2023-05-06T06:09:13.747Z,13905.3848
2023-05-06T06:10:15.440Z,13894.9229
2023-05-06T06:11:17.200Z,13890.3848
2023-05-06T06:12:18.774Z,13881.7695
2023-05-06T06:13:20.444Z,13880.0000
2023-05-06T06:14:22.086Z,13874.5381
2023-05-06T06:15:23.659Z,13868.4619
2023-05-06T06:16:26.309Z,13864.3848
2023-05-06T06:17:27.222Z,13866.2305
2023-05-06T06:18:28.821Z,13859.5381
2023-05-06T06:19:30.211Z,13850.4619
2023-05-06T06:20:32.876Z,13852.0000
2023-05-06T06:21:33.783Z,13846.8457
2023-05-06T06:22:35.333Z,13839.3076
2023-05-06T06:23:37.050Z,13849.7695
2023-05-06T06:24:38.573Z,13837.8457
2023-05-06T06:25:40.383Z,13835.3076
2023-05-06T06:26:41.940Z,13831.3848
2023-05-06T06:27:43.900Z,13828.1543
2023-05-06T06:28:45.083Z,13828.3076
2023-05-06T06:29:46.852Z,13821.2305
2023-05-06T06:30:48.387Z,13819.9229
2023-05-06T06:31:50.204Z,13811.3076
2023-05-06T06:32:51.912Z,13841.1543
2023-05-06T06:33:53.320Z,13841.3848
2023-05-06T06:34:55.026Z,13832.8457
2023-05-06T06:35:56.653Z,13824.3076
2023-05-06T06:36:58.298Z,13821.1543
2023-05-06T06:37:59.996Z,13814.9229
2023-05-06T06:39:01.534Z,13809.8457
2023-05-06T06:40:03.186Z,13815.0771
2023-05-06T06:41:06.667Z,13832.0771
2023-05-06T06:42:06.436Z,13846.6924
2023-05-06T06:43:08.067Z,13834.0000
2023-05-06T06:44:09.726Z,13823.3848
2023-05-06T06:45:12.423Z,13812.2305
2023-05-06T06:46:12.970Z,13809.3076
2023-05-06T06:47:14.627Z,13802.4619
2023-05-06T06:48:16.268Z,13815.0771
2023-05-06T06:49:18.787Z,13848.0000
2023-05-06T06:50:19.564Z,13838.4619
2023-05-06T06:51:21.205Z,13831.1543
2023-05-06T06:52:23.871Z,13818.4619
2023-05-06T06:53:24.784Z,13809.9229
2023-05-06T06:54:26.126Z,13805.3076
2023-05-06T06:55:27.695Z,13799.7695
2023-05-06T06:56:29.408Z,13826.4619
2023-05-06T06:57:31.174Z,13845.6152
2023-05-06T06:58:32.675Z,13828.9229
2023-05-06T06:59:34.255Z,13828.3076
2023-05-06T07:00:35.912Z,13820.6924
2023-05-06T07:01:37.758Z,13803.0000
2023-05-06T07:02:39.224Z,13801.3848
2023-05-06T07:03:40.869Z,13832.3076
2023-05-06T07:04:42.520Z,13851.6152
2023-05-06T07:05:44.077Z,13836.1543
2023-05-06T07:06:45.750Z,13827.6924
2023-05-06T07:07:47.370Z,13815.6152
2023-05-06T07:08:49.051Z,13800.6924
2023-05-06T07:09:50.741Z,13804.6924
2023-05-06T07:10:52.323Z,13831.5381
2023-05-06T07:11:54.083Z,13840.6924
2023-05-06T07:12:55.690Z,13830.6152
2023-05-06T07:13:57.336Z,13829.5381
2023-05-06T07:14:58.934Z,13821.2305
2023-05-06T07:16:00.504Z,13803.9229
2023-05-06T07:17:02.155Z,13817.3076
2023-05-06T07:18:03.907Z,13846.0771
2023-05-06T07:19:05.523Z,13834.6152
2023-05-06T07:20:07.070Z,13828.3848
2023-05-06T07:21:08.699Z,13821.6924
2023-05-06T07:22:10.398Z,13797.9229
2023-05-06T07:23:12.674Z,13815.8457
2023-05-06T07:24:13.724Z,13837.1543
2023-05-06T07:25:15.257Z,13834.0000
2023-05-06T07:26:17.103Z,13818.6152
2023-05-06T07:27:18.620Z,13808.6152
2023-05-06T07:28:20.240Z,13824.6924
2023-05-06T07:29:22.302Z,13838.8457
2023-05-06T07:30:23.708Z,13830.0000
2023-05-06T07:31:25.156Z,13817.3076
2023-05-06T07:32:26.868Z,13810.7695
2023-05-06T07:33:28.589Z,13802.1543
2023-05-06T07:34:30.213Z,13828.5381
2023-05-06T07:35:31.834Z,13835.9229
2023-05-06T07:36:33.439Z,13820.6924
2023-05-06T07:37:35.080Z,13806.3076
2023-05-06T07:38:36.728Z,13800.0000
2023-05-06T07:39:38.567Z,13828.0771
2023-05-06T07:40:40.057Z,13837.1543
2023-05-06T07:41:41.679Z,13826.6152
2023-05-06T07:42:43.474Z,13813.3076
2023-05-06T07:43:45.273Z,13808.0771
2023-05-06T07:44:46.614Z,13832.8457
2023-05-06T07:45:48.181Z,13841.8457
2023-05-06T07:46:49.982Z,13827.5381
2023-05-06T07:47:51.573Z,13810.0000
2023-05-06T07:48:53.182Z,13828.0771
2023-05-06T07:49:54.864Z,13846.0000
2023-05-06T07:50:56.528Z,13830.0000
2023-05-06T07:51:58.102Z,13817.0000
2023-05-06T07:52:59.746Z,13804.1543
2023-05-06T07:54:01.410Z,13829.9229
2023-05-06T07:55:03.102Z,13843.6152
2023-05-06T07:56:04.653Z,13824.4619
2023-05-06T07:57:06.287Z,13803.5381
2023-05-06T07:58:07.995Z,13785.0771
2023-05-06T07:59:09.728Z,13804.6152
2023-05-06T08:00:11.328Z,13826.3076
2023-05-06T08:01:12.950Z,13833.0000
2023-05-06T08:02:14.577Z,13810.3076
2023-05-06T08:03:16.309Z,13788.6152
2023-05-06T08:04:17.896Z,13798.1543
2023-05-06T08:05:19.685Z,13822.5381
2023-05-06T08:06:21.030Z,13829.3076
2023-05-06T08:07:22.726Z,13821.8457
2023-05-06T08:08:24.397Z,13794.5381
2023-05-06T08:09:26.345Z,13793.8457
2023-05-06T08:10:27.647Z,13817.2305
2023-05-06T08:11:29.271Z,13828.7695
2023-05-06T08:12:30.895Z,13816.6924
2023-05-06T08:13:32.618Z,13785.6152
2023-05-06T08:14:34.260Z,13792.1543
2023-05-06T08:15:35.884Z,13814.4619
2023-05-06T08:16:37.480Z,13822.1543
2023-05-06T08:17:39.042Z,13809.0000
2023-05-06T08:18:40.674Z,13800.9229
2023-05-06T08:19:42.419Z,13818.3076
2023-05-06T08:20:44.448Z,13821.9229
2023-05-06T08:21:45.689Z,13797.3848
2023-05-06T08:22:47.267Z,13774.7695
2023-05-06T08:23:48.860Z,13798.1543
2023-05-06T08:24:50.630Z,13815.0771
2023-05-06T08:25:52.933Z,13817.6924
2023-05-06T08:26:53.865Z,13793.9229
2023-05-06T08:27:55.468Z,13787.0771
2023-05-06T08:28:57.097Z,13811.7695
2023-05-06T08:29:58.841Z,13821.0771
2023-05-06T08:31:00.484Z,13806.2305
2023-05-06T08:32:02.137Z,13777.6924
2023-05-06T08:33:03.714Z,13795.3848
2023-05-06T08:34:06.348Z,13814.4619
2023-05-06T08:35:07.016Z,13821.2305
2023-05-06T08:36:08.595Z,13799.9229
2023-05-06T08:37:10.332Z,13782.4619
2023-05-06T08:38:11.823Z,13803.4619
2023-05-06T08:39:13.611Z,13811.1543
2023-05-06T08:40:15.589Z,13807.6152
2023-05-06T08:41:16.927Z,13788.7695
2023-05-06T08:42:18.459Z,13781.6152
2023-05-06T08:43:20.077Z,13804.1543
2023-05-06T08:44:21.682Z,13811.3076
2023-05-06T08:45:23.522Z,13803.0000
2023-05-06T08:46:25.189Z,13778.9229
2023-05-06T08:47:26.748Z,13793.6924
2023-05-06T08:48:28.350Z,13805.4619
2023-05-06T08:49:29.891Z,13809.0771
2023-05-06T08:50:31.616Z,13802.6924
2023-05-06T08:51:33.299Z,13777.5381
2023-05-06T08:52:34.992Z,13790.2305
2023-05-06T08:53:36.949Z,13805.0771
2023-05-06T08:54:38.182Z,13810.0771
2023-05-06T08:55:40.865Z,13807.3076
2023-05-06T08:56:41.463Z,13793.6924
2023-05-06T08:57:43.051Z,13796.8457
2023-05-06T08:58:44.678Z,13802.3076
2023-05-06T08:59:46.347Z,13803.0771
2023-05-06T09:00:47.991Z,13807.0771
2023-05-06T09:01:49.757Z,13796.1543
2023-05-06T09:02:51.416Z,13789.4619
2023-05-06T09:03:53.021Z,13801.6152
2023-05-06T09:04:54.678Z,13804.8457
2023-05-06T09:05:56.418Z,13795.1543
2023-05-06T09:06:57.863Z,13783.3076
2023-05-06T09:08:00.336Z,13794.4619
2023-05-06T09:09:01.155Z,13804.3848
2023-05-06T09:10:02.826Z,13809.1543
2023-05-06T09:11:04.797Z,13799.9229
2023-05-06T09:12:06.134Z,13789.2305
2023-05-06T09:13:07.832Z,13802.3076
2023-05-06T09:14:09.375Z,13800.3848
2023-05-06T09:15:11.252Z,13797.6152
2023-05-06T09:16:12.708Z,13796.3076
2023-05-06T09:17:15.349Z,13795.6152
2023-05-06T09:18:15.880Z,13800.5381
2023-05-06T09:19:18.328Z,13803.3848
2023-05-06T09:20:19.284Z,13807.6152
2023-05-06T09:21:20.913Z,13798.7695
2023-05-06T09:22:22.628Z,13791.5381
2023-05-06T09:23:24.118Z,13798.0000
2023-05-06T09:24:25.856Z,13798.0771
2023-05-06T09:25:27.467Z,13795.3848
2023-05-06T09:26:29.053Z,13789.3076
2023-05-06T09:27:30.807Z,13786.9229
2023-05-06T09:28:32.385Z,13801.0000
2023-05-06T09:29:33.972Z,13798.2305
2023-05-06T09:30:35.673Z,13790.3848
2023-05-06T09:31:38.479Z,13788.5381
2023-05-06T09:32:40.534Z,13794.5381
2023-05-06T09:33:40.534Z,13797.0771
2023-05-06T09:34:42.452Z,13797.2305
2023-05-06T09:35:43.991Z,13789.8457
2023-05-06T09:36:46.768Z,13788.6152
2023-05-06T09:37:47.283Z,13790.6152
2023-05-06T09:38:49.021Z,13789.9229
2023-05-06T09:39:50.686Z,13786.5381
2023-05-06T09:40:52.244Z,13790.3076
2023-05-06T09:41:53.928Z,13790.9229
2023-05-06T09:42:55.661Z,13784.5381
2023-05-06T09:43:58.124Z,13786.8457
2023-05-06T09:45:01.311Z,13787.4619
2023-05-06T09:46:00.491Z,13790.7500
2023-05-06T09:47:02.078Z,13784.1543
2023-05-06T09:48:03.686Z,13783.2305
2023-05-06T09:49:05.356Z,13794.3848
2023-05-06T09:50:06.949Z,13794.7695
2023-05-06T09:51:08.618Z,13784.5381
2023-05-06T09:52:10.226Z,13780.3848
2023-05-06T09:53:11.994Z,13788.8457
2023-05-06T09:54:13.510Z,13798.9229
2023-05-06T09:55:15.220Z,13782.6152
2023-05-06T09:56:16.752Z,13769.3848
2023-05-06T09:57:18.492Z,13788.8457
2023-05-06T09:58:20.161Z,13794.4619
2023-05-06T09:59:21.835Z,13790.9229
2023-05-06T10:00:23.468Z,13772.7695
2023-05-06T10:01:36.127Z,13787.2305
2023-05-06T10:02:26.898Z,13790.7695
2023-05-06T10:03:28.544Z,13789.5381
2023-05-06T10:04:30.233Z,13787.0771
2023-05-06T10:05:31.734Z,13780.6152
2023-05-06T10:06:33.289Z,13781.7695
2023-05-06T10:07:34.983Z,13791.6924
2023-05-06T10:08:36.568Z,13786.8457
2023-05-06T10:09:38.175Z,13777.6152
2023-05-06T10:10:40.118Z,13786.6924
2023-05-06T10:11:41.503Z,13793.3076
2023-05-06T10:12:43.165Z,13797.0771
2023-05-06T10:13:44.848Z,13778.3076
2023-05-06T10:14:46.416Z,13785.6152
2023-05-06T10:15:48.210Z,13791.5381
2023-05-06T10:16:49.724Z,13794.8457
2023-05-06T10:17:51.475Z,13788.0771
2023-05-06T10:18:53.064Z,13781.1543
2023-05-06T10:19:54.696Z,13794.2305
2023-05-06T10:20:56.279Z,13799.5381
2023-05-06T10:21:57.932Z,13780.0000
2023-05-06T10:22:59.646Z,13771.3848
2023-05-06T10:24:01.335Z,13785.6152
2023-05-06T10:25:02.958Z,13794.1543
2023-05-06T10:26:04.641Z,13796.7695
2023-05-06T10:27:06.182Z,13785.0771
2023-05-06T10:28:10.831Z,13773.7695
2023-05-06T10:29:09.472Z,13784.6152
2023-05-06T10:30:11.124Z,13785.4619
2023-05-06T10:31:12.840Z,13791.8457
2023-05-06T10:32:14.387Z,13793.8457
2023-05-06T10:33:16.010Z,13786.6152
2023-05-06T10:34:17.680Z,13777.3076
2023-05-06T10:35:19.312Z,13785.7695
2023-05-06T10:36:20.978Z,13791.7695
2023-05-06T10:37:22.578Z,13783.3076
2023-05-06T10:38:24.276Z,13771.6924
2023-05-06T10:39:25.942Z,13780.0771
2023-05-06T10:40:27.573Z,13786.0000
2023-05-06T10:41:29.173Z,13788.6924
2023-05-06T10:42:30.864Z,13779.6152
2023-05-06T10:43:32.500Z,13770.0771
2023-05-06T10:44:34.221Z,13779.7695
2023-05-06T10:45:35.842Z,13785.3848
2023-05-06T10:46:37.441Z,13789.0771
2023-05-06T10:47:39.122Z,13778.6924
2023-05-06T10:48:40.745Z,13769.6924
2023-05-06T10:49:42.410Z,13780.1543
2023-05-06T10:50:45.069Z,13780.5381
2023-05-06T10:51:45.619Z,13783.6924
2023-05-06T10:52:47.258Z,13778.4619
2023-05-06T10:53:49.065Z,13777.9229
2023-05-06T10:54:50.837Z,13783.4619
2023-05-06T10:55:52.182Z,13781.2305
2023-05-06T10:56:53.936Z,13774.9229
2023-05-06T10:57:55.564Z,13782.3076
2023-05-06T10:58:57.179Z,13786.0771
2023-05-06T10:59:58.797Z,13789.5381
2023-05-06T11:01:00.392Z,13778.3076
2023-05-06T11:02:02.065Z,13776.7695
2023-05-06T11:03:03.837Z,13789.0771
2023-05-06T11:04:05.382Z,13788.0000
2023-05-06T11:05:07.110Z,13778.6924
2023-05-06T11:06:08.620Z,13779.7695
2023-05-06T11:07:10.342Z,13795.6924
2023-05-06T11:08:12.822Z,13798.5381
2023-05-06T11:09:13.817Z,13776.5381
2023-05-06T11:10:15.287Z,13768.7695
2023-05-06T11:11:17.917Z,13792.0000
2023-05-06T11:12:18.572Z,13799.3848
2023-05-06T11:13:20.310Z,13792.4619
2023-05-06T11:14:21.905Z,13769.7695
2023-05-06T11:15:23.508Z,13777.5381
2023-05-06T11:16:25.132Z,13789.3076
2023-05-06T11:17:26.736Z,13791.6152
2023-05-06T11:18:28.414Z,13783.9229
2023-05-06T11:19:30.233Z,13769.4619
2023-05-06T11:20:31.763Z,13781.2305
2023-05-06T11:21:33.349Z,13793.3848
2023-05-06T11:22:35.072Z,13794.6924
2023-05-06T11:23:37.435Z,13782.5381